Terminal Aerodrome Forecast
Issued by NWS Boise, ID

Current Version | Previous Version | Text Only | Print | Product List | Glossary On
Versions: 1 2 3 4 5 6 7 8 9 10 11 12 13 14 15 16 17 18
000
FTUS45 KBOI 131131
TAFBOI
TAF
KBOI 131131Z 1312/1412 VRB03KT 6SM BR OVC005
     FM131800 VRB03KT P6SM OVC015=

USA.gov is the U.S. government's official web portal to all federal, state and local government web resources and services.